»·PEaware :: N467TW KFAT-KTNX

N467TW :: KFAT-KTNX

FLIGHT INFORMATION

Flight Status: Arrived
Operator: Privately registered:
United States
More flights under this callsign
Pilot: Drew L. (13237)
Aircraft: BOEING 737-200
(B732)
More flights by this aircraft type
Origin: KFAT Fresno Yosemite Intl
United States
Destination: KTNX Tonopah Test Range
United States
More flights between these airports :: More routes between these airports
Route: +BULL3 BIH TPH
File this flight plan on PilotEdge
Remarks:
Altitude:
(Current/Filed)
23,000ft
Speed:
(Current/Filed)
0kts
Departed: 10-Aug-18 05:29 PM
Arrived: 10-Aug-18 06:11 PM
Distance/Time
Traveled:
153nm/0:42
Distance/Time
To Go:
Arrived

Flight Plot

Page will automatically refresh every two minutes.


Map Options




Map Legend


Flown Route
Filed Route
Departure Airport
Arrival Airport
Navaid (VOR, NDB)
Fix

Horizontal Profiles

Position Reports

Time Latitude Longitude Heading Altitude Ground
Speed
10-Aug-18 17:13 36.778958 -119.731086 124 336ft 0kts
10-Aug-18 17:14 36.778958 -119.731086 124 336ft 0kts
10-Aug-18 17:15 36.778958 -119.731086 124 336ft 0kts
10-Aug-18 17:16 36.778958 -119.731086 124 336ft 0kts
10-Aug-18 17:17 36.778958 -119.731086 124 336ft 0kts
10-Aug-18 17:18 36.778958 -119.731086 124 336ft 0kts
10-Aug-18 17:19 36.778958 -119.731086 124 336ft 0kts
10-Aug-18 17:20 36.778958 -119.731086 124 336ft 0kts
10-Aug-18 17:21 36.778958 -119.731086 124 336ft 0kts
10-Aug-18 17:22 36.778958 -119.731086 124 336ft 0kts
10-Aug-18 17:23 36.778949 -119.731069 124 336ft 1kts
10-Aug-18 17:24 36.778704 -119.730391 97 336ft 0kts
10-Aug-18 17:25 36.779254 -119.729112 33 336ft 11kts
10-Aug-18 17:26 36.776548 -119.723518 124 336ft 28kts
10-Aug-18 17:27 36.772197 -119.715865 125 336ft 26kts
10-Aug-18 17:28 36.769910 -119.711171 62 336ft 0kts
10-Aug-18 17:29 36.770802 -119.710949 305 336ft 14kts
10-Aug-18 17:30 36.788871 -119.742982 304 910ft 172kts
10-Aug-18 17:31 36.816648 -119.793706 304 2641ft 206kts
10-Aug-18 17:32 36.865225 -119.797516 41 4966ft 219kts
10-Aug-18 17:33 36.911004 -119.741365 42 7758ft 238kts
10-Aug-18 17:34 36.920496 -119.662295 76 10522ft 248kts
10-Aug-18 17:35 36.941747 -119.566114 72 11525ft 319kts
10-Aug-18 17:36 36.966494 -119.459026 72 13964ft 327kts
10-Aug-18 17:37 36.999818 -119.352140 62 15686ft 347kts
10-Aug-18 17:38 37.045528 -119.237807 60 16723ft 378kts
10-Aug-18 17:39 37.093692 -119.119042 65 18222ft 389kts
10-Aug-18 17:40 37.141510 -118.996452 66 19593ft 398kts
10-Aug-18 17:41 37.189153 -118.870385 62 20679ft 409kts
10-Aug-18 17:42 37.238232 -118.740231 63 21739ft 418kts
10-Aug-18 17:43 37.288167 -118.607121 63 22695ft 425kts
10-Aug-18 17:44 37.338571 -118.472162 63 23064ft 431kts
10-Aug-18 17:45 37.388384 -118.338206 63 23063ft 428kts
10-Aug-18 17:46 37.466136 -118.228896 50 23063ft 424kts
10-Aug-18 17:47 37.532643 -118.106536 56 23063ft 424kts
10-Aug-18 17:48 37.593673 -117.979768 57 23063ft 423kts
10-Aug-18 17:49 37.653543 -117.852380 57 23063ft 423kts
10-Aug-18 17:50 37.712914 -117.725156 58 22284ft 417kts
10-Aug-18 17:51 37.771017 -117.600136 58 19820ft 407kts
10-Aug-18 17:52 37.826581 -117.480079 58 19178ft 385kts
10-Aug-18 17:53 37.880005 -117.364231 57 19180ft 377kts
10-Aug-18 17:54 37.930696 -117.252157 58 19180ft 371kts
10-Aug-18 17:55 37.981901 -117.139774 58 19180ft 367kts
10-Aug-18 17:56 38.032823 -117.028194 60 19180ft 363kts
10-Aug-18 17:57 38.030295 -116.912035 134 19191ft 353kts
10-Aug-18 17:58 37.955914 -116.835150 141 18154ft 321kts
10-Aug-18 17:59 37.889320 -116.768319 141 16991ft 302kts
10-Aug-18 18:00 37.824300 -116.702997 141 15517ft 295kts
10-Aug-18 18:01 37.760728 -116.639124 141 14068ft 290kts
10-Aug-18 18:02 37.698364 -116.576437 141 12651ft 284kts
10-Aug-18 18:03 37.637446 -116.515144 141 11273ft 279kts
10-Aug-18 18:04 37.577951 -116.454927 141 11018ft 273kts
10-Aug-18 18:05 37.515765 -116.472505 247 10855ft 272kts
10-Aug-18 18:06 37.544346 -116.556144 311 10149ft 276kts
10-Aug-18 18:07 37.595757 -116.625135 311 9508ft 258kts
10-Aug-18 18:08 37.649196 -116.677598 328 9291ft 232kts
10-Aug-18 18:09 37.704245 -116.717211 328 7761ft 226kts
10-Aug-18 18:10 37.753655 -116.754643 325 6316ft 195kts
10-Aug-18 18:11 37.792902 -116.777631 336 5506ft 126kts
10-Aug-18 18:12 37.805256 -116.783148 67 5506ft 7kts
10-Aug-18 18:13 37.805771 -116.781560 68 5506ft 11kts
10-Aug-18 18:14 37.806986 -116.779598 335 5506ft 0kts
10-Aug-18 18:15 37.806986 -116.779598 335 5506ft 0kts
10-Aug-18 18:16 37.806986 -116.779598 335 5506ft 0kts

Navigation Log

Ident Type
Flight plan parsing failed, navigation log unavailable